sensor_id;sensor_type;location;lat;lon;timestamp;temperature;humidity
52513;DHT22;38422;53.172;6.974;2023-06-04T00:00:49;15.80;90.40
52513;DHT22;38422;53.172;6.974;2023-06-04T00:03:15;15.80;90.40
52513;DHT22;38422;53.172;6.974;2023-06-04T00:05:41;15.80;90.60
52513;DHT22;38422;53.172;6.974;2023-06-04T00:08:06;15.70;90.80
52513;DHT22;38422;53.172;6.974;2023-06-04T00:10:32;15.70;91.00
52513;DHT22;38422;53.172;6.974;2023-06-04T00:12:59;15.60;91.10
52513;DHT22;38422;53.172;6.974;2023-06-04T00:15:25;15.60;91.20
52513;DHT22;38422;53.172;6.974;2023-06-04T00:17:51;15.50;91.50
52513;DHT22;38422;53.172;6.974;2023-06-04T00:20:18;15.50;91.40
52513;DHT22;38422;53.172;6.974;2023-06-04T00:22:44;15.50;91.60
52513;DHT22;38422;53.172;6.974;2023-06-04T00:25:10;15.50;91.60
52513;DHT22;38422;53.172;6.974;2023-06-04T00:27:36;15.50;91.80
52513;DHT22;38422;53.172;6.974;2023-06-04T00:30:03;15.40;91.80
52513;DHT22;38422;53.172;6.974;2023-06-04T00:32:29;15.30;91.90
52513;DHT22;38422;53.172;6.974;2023-06-04T00:34:55;15.30;92.00
52513;DHT22;38422;53.172;6.974;2023-06-04T00:37:23;15.20;92.10
52513;DHT22;38422;53.172;6.974;2023-06-04T00:39:49;15.20;92.30
52513;DHT22;38422;53.172;6.974;2023-06-04T00:42:15;15.10;92.30
52513;DHT22;38422;53.172;6.974;2023-06-04T00:44:41;15.10;92.40
52513;DHT22;38422;53.172;6.974;2023-06-04T00:47:15;15.10;92.60
52513;DHT22;38422;53.172;6.974;2023-06-04T00:49:41;15.00;92.70
52513;DHT22;38422;53.172;6.974;2023-06-04T00:52:12;15.00;92.80
52513;DHT22;38422;53.172;6.974;2023-06-04T00:54:39;15.00;92.90
52513;DHT22;38422;53.172;6.974;2023-06-04T00:57:06;15.00;93.00
52513;DHT22;38422;53.172;6.974;2023-06-04T00:59:35;14.90;93.10
52513;DHT22;38422;53.172;6.974;2023-06-04T01:04:53;14.80;93.30
52513;DHT22;38422;53.172;6.974;2023-06-04T01:07:21;14.80;93.30
52513;DHT22;38422;53.172;6.974;2023-06-04T01:09:49;14.80;93.40
52513;DHT22;38422;53.172;6.974;2023-06-04T01:12:15;14.80;93.50
52513;DHT22;38422;53.172;6.974;2023-06-04T01:14:41;14.80;93.60
52513;DHT22;38422;53.172;6.974;2023-06-04T01:25:36;14.50;94.70
52513;DHT22;38422;53.172;6.974;2023-06-04T01:28:05;14.50;94.60
52513;DHT22;38422;53.172;6.974;2023-06-04T01:30:34;14.50;94.50
52513;DHT22;38422;53.172;6.974;2023-06-04T01:33:02;14.50;94.60
52513;DHT22;38422;53.172;6.974;2023-06-04T01:35:29;14.40;94.80
52513;DHT22;38422;53.172;6.974;2023-06-04T01:37:56;14.40;94.90
52513;DHT22;38422;53.172;6.974;2023-06-04T01:40:23;14.30;95.00
52513;DHT22;38422;53.172;6.974;2023-06-04T01:42:49;14.30;95.20
52513;DHT22;38422;53.172;6.974;2023-06-04T01:45:15;14.30;95.30
52513;DHT22;38422;53.172;6.974;2023-06-04T01:47:41;14.30;95.40
52513;DHT22;38422;53.172;6.974;2023-06-04T01:50:07;14.30;95.50
52513;DHT22;38422;53.172;6.974;2023-06-04T01:52:36;14.20;95.50
52513;DHT22;38422;53.172;6.974;2023-06-04T01:55:03;14.20;95.60
52513;DHT22;38422;53.172;6.974;2023-06-04T01:57:30;14.20;95.60
52513;DHT22;38422;53.172;6.974;2023-06-04T01:59:55;14.20;95.70
52513;DHT22;38422;53.172;6.974;2023-06-04T02:02:21;14.10;96.00
52513;DHT22;38422;53.172;6.974;2023-06-04T02:04:47;14.10;95.90
52513;DHT22;38422;53.172;6.974;2023-06-04T02:07:18;14.10;96.00
52513;DHT22;38422;53.172;6.974;2023-06-04T02:09:46;14.00;96.10
52513;DHT22;38422;53.172;6.974;2023-06-04T02:12:12;14.00;96.20
52513;DHT22;38422;53.172;6.974;2023-06-04T02:14:38;14.00;96.20
52513;DHT22;38422;53.172;6.974;2023-06-04T02:17:04;14.00;96.30
52513;DHT22;38422;53.172;6.974;2023-06-04T02:19:30;13.90;96.40
52513;DHT22;38422;53.172;6.974;2023-06-04T02:21:59;13.90;96.50
52513;DHT22;38422;53.172;6.974;2023-06-04T02:24:24;13.90;96.70
52513;DHT22;38422;53.172;6.974;2023-06-04T02:26:50;13.80;96.80
52513;DHT22;38422;53.172;6.974;2023-06-04T02:29:16;13.80;97.00
52513;DHT22;38422;53.172;6.974;2023-06-04T02:31:42;13.70;97.10
52513;DHT22;38422;53.172;6.974;2023-06-04T02:34:07;13.70;97.30
52513;DHT22;38422;53.172;6.974;2023-06-04T02:36:34;13.70;97.60
52513;DHT22;38422;53.172;6.974;2023-06-04T02:38:59;13.60;97.80
52513;DHT22;38422;53.172;6.974;2023-06-04T02:41:26;13.60;98.10
52513;DHT22;38422;53.172;6.974;2023-06-04T02:43:52;13.60;98.20
52513;DHT22;38422;53.172;6.974;2023-06-04T02:46:18;13.60;98.60
52513;DHT22;38422;53.172;6.974;2023-06-04T02:48:43;13.60;98.80
52513;DHT22;38422;53.172;6.974;2023-06-04T02:51:09;13.60;99.00
52513;DHT22;38422;53.172;6.974;2023-06-04T02:53:36;13.60;99.10
52513;DHT22;38422;53.172;6.974;2023-06-04T02:56:02;13.50;99.20
52513;DHT22;38422;53.172;6.974;2023-06-04T02:58:28;13.50;99.30
52513;DHT22;38422;53.172;6.974;2023-06-04T03:00:54;13.50;99.60
52513;DHT22;38422;53.172;6.974;2023-06-04T03:03:21;13.50;99.80
52513;DHT22;38422;53.172;6.974;2023-06-04T03:05:47;13.50;99.90
52513;DHT22;38422;53.172;6.974;2023-06-04T03:08:13;13.50;99.90
52513;DHT22;38422;53.172;6.974;2023-06-04T03:10:39;13.50;99.90
52513;DHT22;38422;53.172;6.974;2023-06-04T03:13:04;13.50;99.90
52513;DHT22;38422;53.172;6.974;2023-06-04T03:15:30;13.40;99.90
52513;DHT22;38422;53.172;6.974;2023-06-04T03:17:56;13.50;99.90
52513;DHT22;38422;53.172;6.974;2023-06-04T03:20:22;13.40;99.90
52513;DHT22;38422;53.172;6.974;2023-06-04T03:22:51;13.40;99.90
52513;DHT22;38422;53.172;6.974;2023-06-04T03:25:17;13.40;99.90
52513;DHT22;38422;53.172;6.974;2023-06-04T03:27:43;13.40;99.90
52513;DHT22;38422;53.172;6.974;2023-06-04T03:30:09;13.30;99.90
52513;DHT22;38422;53.172;6.974;2023-06-04T03:32:35;13.30;99.90
52513;DHT22;38422;53.172;6.974;2023-06-04T03:35:01;13.30;99.90
52513;DHT22;38422;53.172;6.974;2023-06-04T03:37:28;13.30;99.90
52513;DHT22;38422;53.172;6.974;2023-06-04T03:39:54;13.30;99.90
52513;DHT22;38422;53.172;6.974;2023-06-04T03:42:19;13.30;99.90
52513;DHT22;38422;53.172;6.974;2023-06-04T03:44:45;13.30;99.90
52513;DHT22;38422;53.172;6.974;2023-06-04T03:47:11;13.30;99.90
52513;DHT22;38422;53.172;6.974;2023-06-04T03:49:37;13.40;99.90
52513;DHT22;38422;53.172;6.974;2023-06-04T03:52:03;13.40;99.90
52513;DHT22;38422;53.172;6.974;2023-06-04T03:54:29;13.40;99.90
52513;DHT22;38422;53.172;6.974;2023-06-04T03:56:55;13.40;99.90
52513;DHT22;38422;53.172;6.974;2023-06-04T03:59:20;13.40;99.90
52513;DHT22;38422;53.172;6.974;2023-06-04T04:01:46;13.40;99.90
52513;DHT22;38422;53.172;6.974;2023-06-04T04:04:12;13.40;99.90
52513;DHT22;38422;53.172;6.974;2023-06-04T04:06:38;13.40;99.90
52513;DHT22;38422;53.172;6.974;2023-06-04T04:09:04;13.40;99.90
52513;DHT22;38422;53.172;6.974;2023-06-04T04:11:32;13.50;99.90
52513;DHT22;38422;53.172;6.974;2023-06-04T04:13:58;13.50;99.90
52513;DHT22;38422;53.172;6.974;2023-06-04T04:16:23;13.50;99.90
52513;DHT22;38422;53.172;6.974;2023-06-04T04:18:50;13.50;99.90
52513;DHT22;38422;53.172;6.974;2023-06-04T04:21:15;13.50;99.90
52513;DHT22;38422;53.172;6.974;2023-06-04T04:23:44;13.50;99.90
52513;DHT22;38422;53.172;6.974;2023-06-04T04:26:10;13.50;99.90
52513;DHT22;38422;53.172;6.974;2023-06-04T04:28:36;13.50;99.90
52513;DHT22;38422;53.172;6.974;2023-06-04T04:31:02;13.50;99.90
52513;DHT22;38422;53.172;6.974;2023-06-04T04:33:30;13.50;99.90
52513;DHT22;38422;53.172;6.974;2023-06-04T04:36:02;13.60;99.90
52513;DHT22;38422;53.172;6.974;2023-06-04T04:38:28;13.60;99.90
52513;DHT22;38422;53.172;6.974;2023-06-04T04:40:54;13.60;99.90
52513;DHT22;38422;53.172;6.974;2023-06-04T04:43:31;13.60;99.90
52513;DHT22;38422;53.172;6.974;2023-06-04T04:45:57;13.60;99.90
52513;DHT22;38422;53.172;6.974;2023-06-04T04:48:23;13.60;99.90
52513;DHT22;38422;53.172;6.974;2023-06-04T04:50:49;13.60;99.90
52513;DHT22;38422;53.172;6.974;2023-06-04T04:53:15;13.60;99.90
52513;DHT22;38422;53.172;6.974;2023-06-04T04:55:40;13.60;99.90
52513;DHT22;38422;53.172;6.974;2023-06-04T04:58:06;13.70;99.90
52513;DHT22;38422;53.172;6.974;2023-06-04T05:00:32;13.70;99.90
52513;DHT22;38422;53.172;6.974;2023-06-04T05:02:58;13.70;99.90
52513;DHT22;38422;53.172;6.974;2023-06-04T05:05:24;13.70;99.90
52513;DHT22;38422;53.172;6.974;2023-06-04T05:07:49;13.70;99.90
52513;DHT22;38422;53.172;6.974;2023-06-04T05:10:15;13.80;99.90
52513;DHT22;38422;53.172;6.974;2023-06-04T05:12:52;13.80;99.90
52513;DHT22;38422;53.172;6.974;2023-06-04T05:15:18;13.80;99.90
52513;DHT22;38422;53.172;6.974;2023-06-04T05:17:45;13.90;99.90
52513;DHT22;38422;53.172;6.974;2023-06-04T05:20:13;13.90;99.90
52513;DHT22;38422;53.172;6.974;2023-06-04T05:22:39;13.90;99.90
52513;DHT22;38422;53.172;6.974;2023-06-04T05:25:05;13.90;99.90
52513;DHT22;38422;53.172;6.974;2023-06-04T05:27:34;14.00;99.90
52513;DHT22;38422;53.172;6.974;2023-06-04T05:30:01;14.00;99.90
52513;DHT22;38422;53.172;6.974;2023-06-04T05:32:29;14.00;99.90
52513;DHT22;38422;53.172;6.974;2023-06-04T05:34:57;14.10;99.90
52513;DHT22;38422;53.172;6.974;2023-06-04T05:37:23;14.00;99.90
52513;DHT22;38422;53.172;6.974;2023-06-04T05:39:50;14.00;99.90
52513;DHT22;38422;53.172;6.974;2023-06-04T05:42:15;14.00;99.90
52513;DHT22;38422;53.172;6.974;2023-06-04T05:44:41;14.10;99.90
52513;DHT22;38422;53.172;6.974;2023-06-04T05:47:07;14.10;99.90
52513;DHT22;38422;53.172;6.974;2023-06-04T05:49:36;14.10;99.90
52513;DHT22;38422;53.172;6.974;2023-06-04T05:52:02;14.10;99.90
52513;DHT22;38422;53.172;6.974;2023-06-04T05:54:29;14.20;99.90
52513;DHT22;38422;53.172;6.974;2023-06-04T05:56:55;14.20;99.90
52513;DHT22;38422;53.172;6.974;2023-06-04T05:59:20;14.30;99.90
52513;DHT22;38422;53.172;6.974;2023-06-04T06:01:46;14.30;99.90
52513;DHT22;38422;53.172;6.974;2023-06-04T06:04:14;14.30;99.90
52513;DHT22;38422;53.172;6.974;2023-06-04T06:06:39;14.30;99.90
52513;DHT22;38422;53.172;6.974;2023-06-04T06:09:10;14.30;99.90
52513;DHT22;38422;53.172;6.974;2023-06-04T06:11:36;14.30;99.90
52513;DHT22;38422;53.172;6.974;2023-06-04T06:14:02;14.40;99.90
52513;DHT22;38422;53.172;6.974;2023-06-04T06:16:28;14.40;99.90
52513;DHT22;38422;53.172;6.974;2023-06-04T06:18:53;14.50;99.90
52513;DHT22;38422;53.172;6.974;2023-06-04T06:21:20;14.50;99.90
52513;DHT22;38422;53.172;6.974;2023-06-04T06:23:45;14.50;99.90
52513;DHT22;38422;53.172;6.974;2023-06-04T06:26:11;14.50;99.90
52513;DHT22;38422;53.172;6.974;2023-06-04T06:28:37;14.50;99.90
52513;DHT22;38422;53.172;6.974;2023-06-04T06:31:03;14.50;99.90
52513;DHT22;38422;53.172;6.974;2023-06-04T06:33:29;14.60;99.90
52513;DHT22;38422;53.172;6.974;2023-06-04T06:35:54;14.70;99.90
52513;DHT22;38422;53.172;6.974;2023-06-04T06:38:20;14.70;99.90
52513;DHT22;38422;53.172;6.974;2023-06-04T06:40:46;14.70;99.90
52513;DHT22;38422;53.172;6.974;2023-06-04T06:43:11;14.70;99.90
52513;DHT22;38422;53.172;6.974;2023-06-04T06:45:37;14.70;99.90
52513;DHT22;38422;53.172;6.974;2023-06-04T06:48:04;14.80;99.90
52513;DHT22;38422;53.172;6.974;2023-06-04T06:50:30;14.80;99.90
52513;DHT22;38422;53.172;6.974;2023-06-04T06:52:55;14.90;99.90
52513;DHT22;38422;53.172;6.974;2023-06-04T06:55:21;14.90;99.90
52513;DHT22;38422;53.172;6.974;2023-06-04T06:57:47;15.00;99.90
52513;DHT22;38422;53.172;6.974;2023-06-04T07:00:13;15.00;99.90
52513;DHT22;38422;53.172;6.974;2023-06-04T07:02:38;15.10;99.90
52513;DHT22;38422;53.172;6.974;2023-06-04T07:05:04;15.10;99.90
52513;DHT22;38422;53.172;6.974;2023-06-04T07:07:30;15.10;99.90
52513;DHT22;38422;53.172;6.974;2023-06-04T07:09:56;15.20;99.90
52513;DHT22;38422;53.172;6.974;2023-06-04T07:12:22;15.20;99.90
52513;DHT22;38422;53.172;6.974;2023-06-04T07:14:51;15.20;99.90
52513;DHT22;38422;53.172;6.974;2023-06-04T07:17:19;15.20;99.90
52513;DHT22;38422;53.172;6.974;2023-06-04T07:19:45;15.30;99.90
52513;DHT22;38422;53.172;6.974;2023-06-04T07:22:11;15.30;99.90
52513;DHT22;38422;53.172;6.974;2023-06-04T07:24:37;15.30;99.90
52513;DHT22;38422;53.172;6.974;2023-06-04T07:27:12;15.40;99.90
52513;DHT22;38422;53.172;6.974;2023-06-04T07:29:39;15.40;99.90
52513;DHT22;38422;53.172;6.974;2023-06-04T07:32:05;15.50;99.90
52513;DHT22;38422;53.172;6.974;2023-06-04T07:34:32;15.60;99.90
52513;DHT22;38422;53.172;6.974;2023-06-04T07:36:57;15.60;99.90
52513;DHT22;38422;53.172;6.974;2023-06-04T07:39:23;15.70;99.90
52513;DHT22;38422;53.172;6.974;2023-06-04T07:41:49;15.70;99.90
52513;DHT22;38422;53.172;6.974;2023-06-04T07:44:14;15.80;99.90
52513;DHT22;38422;53.172;6.974;2023-06-04T07:46:40;15.90;99.90
52513;DHT22;38422;53.172;6.974;2023-06-04T07:49:06;15.90;99.90
52513;DHT22;38422;53.172;6.974;2023-06-04T07:51:32;15.90;99.90
52513;DHT22;38422;53.172;6.974;2023-06-04T07:53:57;15.90;99.90
52513;DHT22;38422;53.172;6.974;2023-06-04T07:56:23;16.00;99.90
52513;DHT22;38422;53.172;6.974;2023-06-04T07:58:49;16.10;99.90
52513;DHT22;38422;53.172;6.974;2023-06-04T08:01:14;16.10;99.90
52513;DHT22;38422;53.172;6.974;2023-06-04T08:03:41;16.20;99.90
52513;DHT22;38422;53.172;6.974;2023-06-04T08:06:07;16.20;99.90
52513;DHT22;38422;53.172;6.974;2023-06-04T08:08:33;16.30;99.90
52513;DHT22;38422;53.172;6.974;2023-06-04T08:11:01;16.30;99.90
52513;DHT22;38422;53.172;6.974;2023-06-04T08:13:28;16.40;99.90
52513;DHT22;38422;53.172;6.974;2023-06-04T08:15:54;16.50;99.90
52513;DHT22;38422;53.172;6.974;2023-06-04T08:18:20;16.50;99.90
52513;DHT22;38422;53.172;6.974;2023-06-04T08:20:45;16.60;99.90
52513;DHT22;38422;53.172;6.974;2023-06-04T08:23:11;16.70;99.90
52513;DHT22;38422;53.172;6.974;2023-06-04T08:25:39;16.80;99.80
52513;DHT22;38422;53.172;6.974;2023-06-04T08:28:05;16.90;99.80
52513;DHT22;38422;53.172;6.974;2023-06-04T08:30:31;17.00;99.70
52513;DHT22;38422;53.172;6.974;2023-06-04T08:33:00;17.00;99.20
52513;DHT22;38422;53.172;6.974;2023-06-04T08:35:27;17.10;98.90
52513;DHT22;38422;53.172;6.974;2023-06-04T08:37:52;17.20;98.60
52513;DHT22;38422;53.172;6.974;2023-06-04T08:40:18;17.20;98.50
52513;DHT22;38422;53.172;6.974;2023-06-04T08:42:44;17.30;98.40
52513;DHT22;38422;53.172;6.974;2023-06-04T08:45:11;17.30;98.10
52513;DHT22;38422;53.172;6.974;2023-06-04T08:47:48;17.40;97.90
52513;DHT22;38422;53.172;6.974;2023-06-04T08:50:17;17.50;97.80
52513;DHT22;38422;53.172;6.974;2023-06-04T08:52:43;17.60;97.50
52513;DHT22;38422;53.172;6.974;2023-06-04T08:55:11;17.70;97.30
52513;DHT22;38422;53.172;6.974;2023-06-04T08:57:39;17.80;97.40
52513;DHT22;38422;53.172;6.974;2023-06-04T09:00:06;17.90;97.30
52513;DHT22;38422;53.172;6.974;2023-06-04T09:02:35;18.00;97.40
52513;DHT22;38422;53.172;6.974;2023-06-04T09:05:04;18.20;97.20
52513;DHT22;38422;53.172;6.974;2023-06-04T09:07:30;18.30;97.30
52513;DHT22;38422;53.172;6.974;2023-06-04T09:09:57;18.40;97.30
52513;DHT22;38422;53.172;6.974;2023-06-04T09:12:24;18.50;97.50
52513;DHT22;38422;53.172;6.974;2023-06-04T09:14:51;18.60;97.50
52513;DHT22;38422;53.172;6.974;2023-06-04T09:17:27;18.70;96.90
52513;DHT22;38422;53.172;6.974;2023-06-04T09:19:52;18.80;96.60
52513;DHT22;38422;53.172;6.974;2023-06-04T09:22:18;19.00;97.10
52513;DHT22;38422;53.172;6.974;2023-06-04T09:24:46;19.10;97.20
52513;DHT22;38422;53.172;6.974;2023-06-04T09:27:16;19.30;97.30
52513;DHT22;38422;53.172;6.974;2023-06-04T09:29:56;19.40;96.60
52513;DHT22;38422;53.172;6.974;2023-06-04T09:32:23;19.50;96.00
52513;DHT22;38422;53.172;6.974;2023-06-04T09:34:49;19.60;95.70
52513;DHT22;38422;53.172;6.974;2023-06-04T09:37:16;19.80;95.70
52513;DHT22;38422;53.172;6.974;2023-06-04T09:39:54;20.00;95.70
52513;DHT22;38422;53.172;6.974;2023-06-04T09:42:21;20.30;94.80
52513;DHT22;38422;53.172;6.974;2023-06-04T09:44:47;20.50;95.10
52513;DHT22;38422;53.172;6.974;2023-06-04T09:47:13;20.70;95.00
52513;DHT22;38422;53.172;6.974;2023-06-04T09:49:47;20.90;94.60
52513;DHT22;38422;53.172;6.974;2023-06-04T09:52:13;21.20;94.10
52513;DHT22;38422;53.172;6.974;2023-06-04T09:54:42;21.50;94.10
52513;DHT22;38422;53.172;6.974;2023-06-04T09:57:16;21.70;93.40
52513;DHT22;38422;53.172;6.974;2023-06-04T09:59:44;21.90;92.50
52513;DHT22;38422;53.172;6.974;2023-06-04T10:02:12;22.20;92.70
52513;DHT22;38422;53.172;6.974;2023-06-04T10:04:41;22.30;92.10
52513;DHT22;38422;53.172;6.974;2023-06-04T10:07:09;22.50;91.60
52513;DHT22;38422;53.172;6.974;2023-06-04T10:09:38;22.60;91.20
52513;DHT22;38422;53.172;6.974;2023-06-04T10:12:14;22.70;90.70
52513;DHT22;38422;53.172;6.974;2023-06-04T10:14:54;22.90;90.70
52513;DHT22;38422;53.172;6.974;2023-06-04T10:17:22;23.00;89.70
52513;DHT22;38422;53.172;6.974;2023-06-04T10:19:50;23.10;90.50
52513;DHT22;38422;53.172;6.974;2023-06-04T10:22:20;23.30;90.10
52513;DHT22;38422;53.172;6.974;2023-06-04T10:24:45;23.50;89.60
52513;DHT22;38422;53.172;6.974;2023-06-04T10:27:12;23.60;88.90
52513;DHT22;38422;53.172;6.974;2023-06-04T10:29:42;23.70;88.50
52513;DHT22;38422;53.172;6.974;2023-06-04T10:32:08;23.90;87.60
52513;DHT22;38422;53.172;6.974;2023-06-04T10:34:34;24.00;88.00
52513;DHT22;38422;53.172;6.974;2023-06-04T10:37:01;24.20;86.50
52513;DHT22;38422;53.172;6.974;2023-06-04T10:39:29;24.30;85.10
52513;DHT22;38422;53.172;6.974;2023-06-04T10:41:58;24.30;84.40
52513;DHT22;38422;53.172;6.974;2023-06-04T10:44:24;24.40;81.80
52513;DHT22;38422;53.172;6.974;2023-06-04T10:46:50;24.50;83.90
52513;DHT22;38422;53.172;6.974;2023-06-04T10:49:26;24.60;83.60
52513;DHT22;38422;53.172;6.974;2023-06-04T10:51:52;24.70;83.00
52513;DHT22;38422;53.172;6.974;2023-06-04T10:54:25;24.90;82.00
52513;DHT22;38422;53.172;6.974;2023-06-04T10:56:52;24.90;80.70
52513;DHT22;38422;53.172;6.974;2023-06-04T10:59:18;24.90;81.80
52513;DHT22;38422;53.172;6.974;2023-06-04T11:01:45;25.00;82.60
52513;DHT22;38422;53.172;6.974;2023-06-04T11:04:21;25.10;81.60
52513;DHT22;38422;53.172;6.974;2023-06-04T11:06:47;25.20;82.00
52513;DHT22;38422;53.172;6.974;2023-06-04T11:09:14;25.20;80.90
52513;DHT22;38422;53.172;6.974;2023-06-04T11:11:42;25.30;81.50
52513;DHT22;38422;53.172;6.974;2023-06-04T11:14:11;25.30;81.30
52513;DHT22;38422;53.172;6.974;2023-06-04T11:16:42;25.40;80.90
52513;DHT22;38422;53.172;6.974;2023-06-04T11:19:07;25.40;81.10
52513;DHT22;38422;53.172;6.974;2023-06-04T11:21:37;25.40;80.80
52513;DHT22;38422;53.172;6.974;2023-06-04T11:24:04;25.40;80.40
52513;DHT22;38422;53.172;6.974;2023-06-04T11:26:34;25.50;81.00
52513;DHT22;38422;53.172;6.974;2023-06-04T11:29:00;25.60;80.10
52513;DHT22;38422;53.172;6.974;2023-06-04T11:31:26;25.70;80.50
52513;DHT22;38422;53.172;6.974;2023-06-04T11:33:52;25.70;79.70
52513;DHT22;38422;53.172;6.974;2023-06-04T11:38:58;25.70;78.90
52513;DHT22;38422;53.172;6.974;2023-06-04T11:41:27;25.80;79.80
52513;DHT22;38422;53.172;6.974;2023-06-04T11:43:53;25.90;79.10
52513;DHT22;38422;53.172;6.974;2023-06-04T11:46:19;26.10;79.10
52513;DHT22;38422;53.172;6.974;2023-06-04T11:48:46;26.30;79.00
52513;DHT22;38422;53.172;6.974;2023-06-04T11:51:12;26.40;78.70
52513;DHT22;38422;53.172;6.974;2023-06-04T11:53:38;26.50;78.00
52513;DHT22;38422;53.172;6.974;2023-06-04T11:56:05;26.50;77.30
52513;DHT22;38422;53.172;6.974;2023-06-04T11:58:31;26.50;77.30
52513;DHT22;38422;53.172;6.974;2023-06-04T12:00:57;26.50;77.50
52513;DHT22;38422;53.172;6.974;2023-06-04T12:06:18;26.50;76.50
52513;DHT22;38422;53.172;6.974;2023-06-04T12:08:53;26.60;75.60
52513;DHT22;38422;53.172;6.974;2023-06-04T12:11:33;26.70;76.10
52513;DHT22;38422;53.172;6.974;2023-06-04T12:14:07;26.80;74.90
52513;DHT22;38422;53.172;6.974;2023-06-04T12:16:33;26.80;75.90
52513;DHT22;38422;53.172;6.974;2023-06-04T12:21:32;27.00;75.60
52513;DHT22;38422;53.172;6.974;2023-06-04T12:24:12;27.10;76.00
52513;DHT22;38422;53.172;6.974;2023-06-04T12:26:39;27.30;74.70
52513;DHT22;38422;53.172;6.974;2023-06-04T12:29:16;27.30;74.40
52513;DHT22;38422;53.172;6.974;2023-06-04T12:31:44;27.30;74.30
52513;DHT22;38422;53.172;6.974;2023-06-04T12:34:11;27.30;74.40
52513;DHT22;38422;53.172;6.974;2023-06-04T12:36:37;27.40;74.40
52513;DHT22;38422;53.172;6.974;2023-06-04T12:39:04;27.40;74.20
52513;DHT22;38422;53.172;6.974;2023-06-04T12:41:31;27.50;74.90
52513;DHT22;38422;53.172;6.974;2023-06-04T12:43:59;27.60;74.20
52513;DHT22;38422;53.172;6.974;2023-06-04T12:46:25;27.70;74.10
52513;DHT22;38422;53.172;6.974;2023-06-04T12:48:51;28.00;74.20
52513;DHT22;38422;53.172;6.974;2023-06-04T12:51:18;28.10;73.80
52513;DHT22;38422;53.172;6.974;2023-06-04T12:53:44;28.10;73.00
52513;DHT22;38422;53.172;6.974;2023-06-04T12:56:10;28.10;72.20
52513;DHT22;38422;53.172;6.974;2023-06-04T12:58:36;28.10;72.10
52513;DHT22;38422;53.172;6.974;2023-06-04T13:01:02;28.00;72.00
52513;DHT22;38422;53.172;6.974;2023-06-04T13:03:30;28.00;71.80
52513;DHT22;38422;53.172;6.974;2023-06-04T13:05:56;28.00;71.70
52513;DHT22;38422;53.172;6.974;2023-06-04T13:08:23;28.00;71.80
52513;DHT22;38422;53.172;6.974;2023-06-04T13:10:49;28.00;71.30
52513;DHT22;38422;53.172;6.974;2023-06-04T13:13:16;28.00;70.70
52513;DHT22;38422;53.172;6.974;2023-06-04T13:15:42;28.00;71.30
52513;DHT22;38422;53.172;6.974;2023-06-04T13:18:09;28.00;71.20
52513;DHT22;38422;53.172;6.974;2023-06-04T13:20:36;28.10;71.30
52513;DHT22;38422;53.172;6.974;2023-06-04T13:23:02;28.10;71.20
52513;DHT22;38422;53.172;6.974;2023-06-04T13:25:27;28.10;70.90
52513;DHT22;38422;53.172;6.974;2023-06-04T13:28:07;28.20;71.20
52513;DHT22;38422;53.172;6.974;2023-06-04T13:30:35;28.20;70.30
52513;DHT22;38422;53.172;6.974;2023-06-04T13:33:02;28.30;70.30
52513;DHT22;38422;53.172;6.974;2023-06-04T13:35:28;28.40;70.70
52513;DHT22;38422;53.172;6.974;2023-06-04T13:37:54;28.50;70.40
52513;DHT22;38422;53.172;6.974;2023-06-04T13:40:20;28.60;70.10
52513;DHT22;38422;53.172;6.974;2023-06-04T13:42:47;28.60;69.90
52513;DHT22;38422;53.172;6.974;2023-06-04T13:45:13;28.60;69.30
52513;DHT22;38422;53.172;6.974;2023-06-04T13:47:38;28.30;69.10
52513;DHT22;38422;53.172;6.974;2023-06-04T13:50:04;28.40;69.30
52513;DHT22;38422;53.172;6.974;2023-06-04T13:52:31;28.50;69.30
52513;DHT22;38422;53.172;6.974;2023-06-04T13:54:57;28.50;69.60
52513;DHT22;38422;53.172;6.974;2023-06-04T13:57:28;28.50;68.90
52513;DHT22;38422;53.172;6.974;2023-06-04T13:59:54;28.50;68.50
52513;DHT22;38422;53.172;6.974;2023-06-04T14:02:19;28.30;68.30
52513;DHT22;38422;53.172;6.974;2023-06-04T14:04:46;28.30;68.60
52513;DHT22;38422;53.172;6.974;2023-06-04T14:07:12;28.20;68.30
52513;DHT22;38422;53.172;6.974;2023-06-04T14:09:38;28.30;68.50
52513;DHT22;38422;53.172;6.974;2023-06-04T14:12:04;28.30;68.20
52513;DHT22;38422;53.172;6.974;2023-06-04T14:14:29;28.30;68.10
52513;DHT22;38422;53.172;6.974;2023-06-04T14:17:05;28.40;68.20
52513;DHT22;38422;53.172;6.974;2023-06-04T14:19:34;28.60;67.70
52513;DHT22;38422;53.172;6.974;2023-06-04T14:22:01;28.60;67.80
52513;DHT22;38422;53.172;6.974;2023-06-04T14:24:27;28.60;67.30
52513;DHT22;38422;53.172;6.974;2023-06-04T14:26:53;28.40;67.10
52513;DHT22;38422;53.172;6.974;2023-06-04T14:29:18;28.40;67.10
52513;DHT22;38422;53.172;6.974;2023-06-04T14:31:45;28.30;66.80
52513;DHT22;38422;53.172;6.974;2023-06-04T14:34:11;28.30;66.80
52513;DHT22;38422;53.172;6.974;2023-06-04T14:36:37;28.20;66.70
52513;DHT22;38422;53.172;6.974;2023-06-04T14:39:02;28.20;66.90
52513;DHT22;38422;53.172;6.974;2023-06-04T14:41:28;28.30;66.60
52513;DHT22;38422;53.172;6.974;2023-06-04T14:43:54;28.30;66.50
52513;DHT22;38422;53.172;6.974;2023-06-04T14:46:19;28.20;66.10
52513;DHT22;38422;53.172;6.974;2023-06-04T14:48:45;28.20;66.00
52513;DHT22;38422;53.172;6.974;2023-06-04T14:51:11;28.30;66.20
52513;DHT22;38422;53.172;6.974;2023-06-04T14:53:37;28.40;66.30
52513;DHT22;38422;53.172;6.974;2023-06-04T14:56:05;28.40;66.20
52513;DHT22;38422;53.172;6.974;2023-06-04T14:58:31;28.50;65.70
52513;DHT22;38422;53.172;6.974;2023-06-04T15:00:58;28.50;65.40
52513;DHT22;38422;53.172;6.974;2023-06-04T15:03:24;28.50;65.40
52513;DHT22;38422;53.172;6.974;2023-06-04T15:05:50;28.30;64.90
52513;DHT22;38422;53.172;6.974;2023-06-04T15:08:16;28.30;65.40
52513;DHT22;38422;53.172;6.974;2023-06-04T15:10:42;28.20;65.30
52513;DHT22;38422;53.172;6.974;2023-06-04T15:13:08;28.20;65.40
52513;DHT22;38422;53.172;6.974;2023-06-04T15:15:33;28.10;65.30
52513;DHT22;38422;53.172;6.974;2023-06-04T15:17:59;28.20;65.40
52513;DHT22;38422;53.172;6.974;2023-06-04T15:20:25;28.10;65.20
52513;DHT22;38422;53.172;6.974;2023-06-04T15:22:53;28.00;65.20
52513;DHT22;38422;53.172;6.974;2023-06-04T15:25:19;27.90;65.30
52513;DHT22;38422;53.172;6.974;2023-06-04T15:27:45;27.90;65.70
52513;DHT22;38422;53.172;6.974;2023-06-04T15:30:10;27.90;65.90
52513;DHT22;38422;53.172;6.974;2023-06-04T15:32:36;28.00;66.00
52513;DHT22;38422;53.172;6.974;2023-06-04T15:35:03;28.00;65.90
52513;DHT22;38422;53.172;6.974;2023-06-04T15:37:29;27.80;65.60
52513;DHT22;38422;53.172;6.974;2023-06-04T15:39:55;27.80;65.60
52513;DHT22;38422;53.172;6.974;2023-06-04T15:42:23;27.80;65.70
52513;DHT22;38422;53.172;6.974;2023-06-04T15:44:49;27.80;65.60
52513;DHT22;38422;53.172;6.974;2023-06-04T15:47:15;27.80;65.70